Spaceon02064 — ASD — position and weather

sailwx.info

Track history (hours):
 
Tides and Currents Weather Stations Pressure Air Temp Water Temp Dewpoint Dewpoint Depression Visibility Wind Speed Wind Dir Waves Ship Positions

Spaceon02064

Last reported at 2014-Dec-20 14:34 UTC. Time now 2014-Dec-20 15:08 UTC.
Position N 31°22' E 121°43'.

Length 6 m.

Type: Ship. MMSI: 200902064.

Date/timePositionNaut miles runAvg speedWind from/ knotsBaromVisibWave heightAir tempDewpointWater temp
2014-Dec-20 14:34N 31°22' E 121°43'192626.8
2014-Dec-20 14:33N 31°09' E 121°27'822747.7
2014-Dec-20 14:31N 29°54' E 122°08'9093.7
2014-Dec-20 13:34N 31°22' E 121°43'17421.2
2014-Dec-20 13:31N 31°11' E 121°28'90997.1
2014-Dec-20 13:26N 29°47' E 122°04'97111.2
2014-Dec-20 12:34N 31°22' E 121°43'17415.6
2014-Dec-20 12:31N 31°11' E 121°28'1717.6
2014-Dec-20 11:33N 31°22' E 121°43'17412.8
2014-Dec-20 11:31N 31°11' E 121°28'0 0.4
2014-Dec-20 10:31N 31°11' E 121°28'16411.6
2014-Dec-20 10:29N 31°22' E 121°43'0 0.0
2014-Dec-20 09:34N 31°22' E 121°43'15378.8
2014-Dec-20 09:31N 31°12' E 121°29'1516.0
2014-Dec-20 08:34N 31°22' E 121°43'14355.2
2014-Dec-20 08:31N 31°13' E 121°30'1414.6
2014-Dec-20 07:33N 31°22' E 121°43'141189.1
2014-Dec-20 07:33N 31°15' E 121°29'1414.0
2014-Dec-20 06:33N 31°22' E 121°43'11115.3
2014-Dec-20 06:28N 31°15' E 121°32'1112.6
2014-Dec-20 05:34N 31°22' E 121°43'21221.6
2014-Dec-20 05:28N 31°05' E 121°28'12333.3
2014-Dec-20 05:26N 30°57' E 121°17'3338.2
2014-Dec-20 04:34N 31°19' E 121°47'296452.4
2014-Dec-20 04:33N 30°59' E 121°22'2928.7
2014-Dec-20 03:33N 31°19' E 121°47'11123.7
2014-Dec-20 03:28N 31°17' E 121°34'1111.9
2014-Dec-20 02:34N 31°19' E 121°47'20422.8
2014-Dec-20 02:31N 31°07' E 121°28'1135.7
2014-Dec-20 02:12N 31°17' E 121°34'1116.9
2014-Dec-20 01:34N 31°19' E 121°47'18902.1
2014-Dec-20 01:32N 31°11' E 121°28'8222.1
2014-Dec-20 01:30N 31°17' E 121°34'516.8
2014-Dec-20 01:13N 31°14' E 121°30'1523.4
2014-Dec-20 00:34N 31°19' E 121°47'12357.7
2014-Dec-20 00:32N 31°16' E 121°33'1232.2
2014-Dec-20 00:09N 31°05' E 121°28'2135.4
2014-Dec-19 23:34N 31°19' E 121°47'1527035.1
2014-Dec-19 23:33N 31°13' E 121°30'724.4
2014-Dec-19 23:15N 31°20' E 121°33'1216.9
2014-Dec-19 22:33N 31°19' E 121°47'202267.5
2014-Dec-19 22:33N 31°09' E 121°27'131089.9
2014-Dec-19 22:32N 31°22' E 121°30'0 0.7
2014-Dec-19 22:13N 31°22' E 121°30'1522.3
2014-Dec-19 21:34N 31°19' E 121°47'2213270.6
2014-Dec-19 21:33N 31°03' E 121°29'22719.6
2014-Dec-19 21:32N 31°25' E 121°30'23124.7
2014-Dec-19 21:20N 31°41' E 121°11'3848.8
2014-Dec-19 20:34N 31°19' E 121°47'279598.2
2014-Dec-19 20:33N 30°60' E 121°25'3271.5
2014-Dec-19 20:06N 31°32' E 121°21'2647.2
2014-Dec-19 19:34N 31°19' E 121°47'30455.8
2014-Dec-19 19:30N 31°35' E 121°17'3032.0
2014-Dec-19 18:34N 31°19' E 121°47'368181.2
2014-Dec-19 18:33N 31°40' E 121°12'1 3.2
2014-Dec-19 18:15N 31°41' E 121°11'3753.7
2014-Dec-19 17:33N 31°19' E 121°47'4215098.9
2014-Dec-19 17:33N 31°43' E 121°07'0 2.7
2014-Dec-19 17:25N 31°43' E 121°06'4249.3
2014-Dec-19 16:34N 31°19' E 121°47'46857.2
2014-Dec-19 16:30N 31°45' E 121°03'4648.3
2014-Dec-19 15:34N 31°19' E 121°47'465147.0
2014-Dec-19 15:33N 31°45' E 121°03'4646.2
2014-Dec-19 14:34N 31°19' E 121°47'46596.9
2014-Dec-19 14:29N 31°45' E 121°03'4649.6
2014-Dec-19 13:34N 31°19' E 121°47'46319.4
2014-Dec-19 13:25N 31°45' E 121°03'4653.3
2014-Dec-19 12:33N 31°19' E 121°47'0 0.0
2014-Dec-19 11:34N 31°19' E 121°47'0 0.0
2014-Dec-19 10:34N 31°19' E 121°47'0 0.0
2014-Dec-19 09:33N 31°19' E 121°47'62750.6
2014-Dec-19 09:28N 31°58' E 120°51'5863.3
2014-Dec-19 08:34N 31°22' E 121°43'638404.3
2014-Dec-19 08:33N 32°00' E 120°45'6363.5
2014-Dec-19 07:33N 31°22' E 121°43'21891.6
2014-Dec-19 07:32N 31°05' E 121°28'70742.9
2014-Dec-19 07:26N 31°60' E 120°38'6776.4
2014-Dec-19 06:33N 31°22' E 121°43'7110626.2
2014-Dec-19 06:33N 32°00' E 120°34'314.0
2014-Dec-19 06:22N 32°01' E 120°31'7390.9
2014-Dec-19 05:33N 31°22' E 121°43'7453597.9
2014-Dec-19 05:33N 32°02' E 120°29'2237.4
2014-Dec-19 05:33N 32°01' E 120°27'77185.9
2014-Dec-19 05:08N 31°05' E 121°28'2137.0
2014-Dec-19 04:33N 31°22' E 121°43'7746185.0
2014-Dec-19 04:33N 32°01' E 120°26'78734.6
2014-Dec-19 04:27N 31°05' E 121°28'2123.9
2014-Dec-19 03:33N 31°22' E 121°43'7956673.0
2014-Dec-19 03:33N 31°59' E 120°22'783475.9
2014-Dec-19 03:32N 31°05' E 121°28'2121.9
2014-Dec-19 02:34N 31°22' E 121°43'8249194.3
2014-Dec-19 02:33N 31°56' E 120°16'80144109.4
2014-Dec-19 02:33N 31°05' E 121°28'2121.3
2014-Dec-19 01:33N 31°22' E 121°43'88158038.5
2014-Dec-19 01:33N 31°56' E 120°08'858733.3
2014-Dec-19 01:33N 31°05' E 121°28'2121.6
2014-Dec-19 00:33N 31°22' E 121°43'0 0.1
2014-Dec-18 23:34N 31°22' E 121°43'0 0.0
2014-Dec-18 22:33N 31°22' E 121°43'0 0.0
2014-Dec-18 21:34N 31°22' E 121°43'0 0.0
2014-Dec-18 20:33N 31°22' E 121°43'0 0.0
2014-Dec-18 19:33N 31°22' E 121°43'0 0.0
2014-Dec-18 18:33N 31°22' E 121°43'0 0.0
2014-Dec-18 17:34N 31°22' E 121°43'0 0.0
2014-Dec-18 16:33N 31°22' E 121°43'0 0.0
2014-Dec-18 15:34N 31°22' E 121°43'1934274.2
2014-Dec-18 15:33N 31°08' E 121°27'1919.0
2014-Dec-18 14:34N 31°22' E 121°43'162722.6
2014-Dec-18 14:33N 31°12' E 121°29'1616.0
2014-Dec-18 13:33N 31°22' E 121°43'13824.9
2014-Dec-18 13:33N 31°15' E 121°30'61605.7
2014-Dec-18 13:26N 32°02' E 120°45'6472.6
2014-Dec-18 12:33N 31°22' E 121°43'64760.8
2014-Dec-18 12:28N 32°02' E 120°45'68211.4
2014-Dec-18 12:09N 31°05' E 121°28'610.6
2014-Dec-18 11:34N 30°60' E 121°24'2899294.6
2014-Dec-18 11:34N 31°22' E 121°43'215121.6
2014-Dec-18 11:33N 31°05' E 121°28'76426.7
2014-Dec-18 11:23N 31°60' E 120°27'67471.4
2014-Dec-18 11:14N 31°21' E 121°31'913.6
2014-Dec-18 10:34N 31°22' E 121°41'106926.3
2014-Dec-18 10:33N 31°23' E 121°30'196670.2
2014-Dec-18 10:33N 31°05' E 121°28'7823276.7
2014-Dec-18 10:33N 31°58' E 120°22'7877.9
2014-Dec-18 09:33N 31°05' E 121°28'194591.1
2014-Dec-18 09:33N 31°23' E 121°33'3127986.3
2014-Dec-18 09:33N 30°58' E 121°13'321998.5
2014-Dec-18 09:32N 31°26' E 121°29'7 6.8
2014-Dec-18 08:34N 31°21' E 121°33'3127823.9
2014-Dec-18 08:33N 30°58' E 121°08'19249.2
2014-Dec-18 08:29N 31°05' E 121°28'0 0.0
2014-Dec-18 07:31N 31°05' E 121°28'24353.1
2014-Dec-18 07:27N 30°57' E 121°01'34323.5
2014-Dec-18 07:21N 31°17' E 121°34'1316.0
2014-Dec-18 06:31N 31°05' E 121°28'13132.0
2014-Dec-18 06:25N 31°17' E 121°34'1315.2
2014-Dec-18 05:33N 31°05' E 121°28'8884.9
2014-Dec-18 04:31N 31°58' E 120°06'86301.4
2014-Dec-18 04:14N 31°17' E 121°34'80118.9
2014-Dec-18 03:33N 31°57' E 120°12'83319.7
2014-Dec-18 03:18N 31°05' E 121°28'14172.2
2014-Dec-18 03:13N 31°18' E 121°34'76114.4
2014-Dec-18 02:33N 31°58' E 120°18'802663.0
2014-Dec-18 02:32N 31°05' E 121°28'0 0.0
2014-Dec-18 01:33N 31°05' E 121°28'7823370.4
2014-Dec-18 01:33N 31°60' E 120°23'73176.0
2014-Dec-18 01:08N 31°18' E 121°34'72125.0
2014-Dec-18 00:34N 32°02' E 120°27'4 3.7
2014-Dec-17 23:33N 32°02' E 120°32'4 3.8
2014-Dec-17 22:32N 32°01' E 120°36'65436.4
2014-Dec-17 22:23N 31°18' E 121°34'6274.6
2014-Dec-17 21:33N 32°00' E 120°40'4 3.9
2014-Dec-17 20:33N 32°01' E 120°45'4 4.1
2014-Dec-17 19:33N 31°60' E 120°50'5 4.4
2014-Dec-17 18:29N 31°56' E 120°53'11 4.6
2014-Dec-17 16:11N 31°47' E 120°59'4 5.9
2014-Dec-17 15:34N 31°46' E 121°03'6 6.3
2014-Dec-17 14:33N 31°42' E 121°09'3295.2
2014-Dec-17 14:13N 31°18' E 121°34'0 0.3
2014-Dec-17 13:08N 31°17' E 121°34'3 4.5
2014-Dec-17 12:32N 31°20' E 121°33'1710119.5
2014-Dec-17 12:32N 31°33' E 121°21'1414.1
2014-Dec-17 11:33N 31°24' E 121°32'7 7.3
2014-Dec-17 10:33N 31°21' E 121°40'871.6
2014-Dec-17 10:26N 31°24' E 121°31'1011.8
2014-Dec-17 09:34N 31°22' E 121°43'132061.0
2014-Dec-17 09:33N 31°22' E 121°28'1313.2
2014-Dec-17 08:33N 31°22' E 121°43'131394.2
2014-Dec-17 08:33N 31°22' E 121°28'0 0.0
2014-Dec-17 07:33N 31°22' E 121°28'1311850.6
2014-Dec-17 07:33N 31°22' E 121°43'0 0.0
2014-Dec-17 06:33N 31°22' E 121°43'13351.1
2014-Dec-17 06:31N 31°22' E 121°28'0 0.0
2014-Dec-17 05:33N 31°22' E 121°28'137900.5
2014-Dec-17 05:33N 31°22' E 121°43'1313.2
2014-Dec-17 04:33N 31°22' E 121°28'137900.5
2014-Dec-17 04:33N 31°22' E 121°43'0 0.1
2014-Dec-17 03:33N 31°22' E 121°43'1315862.7
2014-Dec-17 03:33N 31°22' E 121°28'0 0.0
2014-Dec-17 02:33N 31°22' E 121°28'137931.3
2014-Dec-17 02:33N 31°22' E 121°43'1313.2
2014-Dec-17 01:33N 31°22' E 121°28'131359.7
2014-Dec-17 01:33N 31°22' E 121°43'2163.1
2014-Dec-17 01:13N 31°05' E 121°28'2132.6
2014-Dec-17 00:33N 31°22' E 121°43'1315801.1
2014-Dec-17 00:33N 31°22' E 121°28'1313.3
2014-Dec-16 23:34N 31°22' E 121°43'13729.3
2014-Dec-16 23:32N 31°22' E 121°28'1313.4
2014-Dec-16 22:33N 31°22' E 121°43'133135.6
2014-Dec-16 22:33N 31°22' E 121°28'987.4
2014-Dec-16 22:27N 31°29' E 121°24'9 9.6
2014-Dec-16 21:33N 31°22' E 121°28'13723.6
2014-Dec-16 21:32N 31°22' E 121°43'136535.5
2014-Dec-16 21:32N 31°26' E 121°29'221028.4
2014-Dec-16 21:31N 31°05' E 121°28'1717.6
2014-Dec-16 20:33N 31°22' E 121°28'139406.7
2014-Dec-16 20:33N 31°22' E 121°43'114551.0
2014-Dec-16 20:33N 31°22' E 121°30'17120.3
2014-Dec-16 20:25N 31°05' E 121°28'2125.0
2014-Dec-16 19:33N 31°22' E 121°43'104275.8
2014-Dec-16 19:33N 31°17' E 121°34'75098.9
2014-Dec-16 19:33N 31°22' E 121°28'17140.7
2014-Dec-16 19:26N 31°05' E 121°28'1719.3
2014-Dec-16 18:33N 31°22' E 121°28'13443.7
2014-Dec-16 18:32N 31°22' E 121°43'152775.9
2014-Dec-16 18:31N 31°12' E 121°30'8124.8
2014-Dec-16 18:28N 31°05' E 121°28'1718.6
2014-Dec-16 17:33N 31°22' E 121°28'133123.3
2014-Dec-16 17:33N 31°22' E 121°43'1313.1
2014-Dec-16 16:33N 31°22' E 121°28'137838.9
2014-Dec-16 16:33N 31°22' E 121°43'21625.6
2014-Dec-16 16:31N 31°05' E 121°28'2122.2
2014-Dec-16 15:34N 31°22' E 121°43'1315677.8
2014-Dec-16 15:33N 31°22' E 121°28'0 0.0
2014-Dec-16 14:34N 31°22' E 121°28'131621.8
2014-Dec-16 14:33N 31°22' E 121°43'1313.1
2014-Dec-16 13:33N 31°22' E 121°28'136692.7
2014-Dec-16 13:33N 31°22' E 121°43'1313.0
2014-Dec-16 12:33N 31°22' E 121°28'137808.2
2014-Dec-16 12:33N 31°22' E 121°43'1313.1
2014-Dec-16 11:33N 31°22' E 121°28'136719.1
2014-Dec-16 11:33N 31°22' E 121°43'0 0.0
2014-Dec-16 10:33N 31°22' E 121°43'13254.2
2014-Dec-16 10:30N 31°22' E 121°28'1313.8
2014-Dec-16 09:34N 31°22' E 121°43'131952.0
2014-Dec-16 09:33N 31°22' E 121°28'0 0.0
2014-Dec-16 08:33N 31°22' E 121°28'131874.0
2014-Dec-16 08:33N 31°22' E 121°43'0 0.0
2014-Dec-16 07:33N 31°22' E 121°43'131064.8
2014-Dec-16 07:32N 31°22' E 121°28'0 0.1
2014-Dec-16 06:33N 31°22' E 121°28'132766.7
2014-Dec-16 06:33N 31°22' E 121°43'21134.5
2014-Dec-16 06:24N 31°05' E 121°28'1720.0
2014-Dec-16 05:33N 31°22' E 121°28'1315677.9
2014-Dec-16 05:33N 31°22' E 121°43'0 0.0
2014-Dec-16 04:33N 31°22' E 121°43'132351.7
2014-Dec-16 04:33N 31°22' E 121°28'1313.0
2014-Dec-16 03:32N 31°22' E 121°43'137838.9
2014-Dec-16 03:32N 31°22' E 121°28'1313.2
2014-Dec-16 02:33N 31°22' E 121°43'131115.5
2014-Dec-16 02:32N 31°22' E 121°28'1311.1
2014-Dec-16 01:22N 31°22' E 121°43'13164.4
2014-Dec-16 01:17N 31°22' E 121°28'0 0.1
2014-Dec-16 00:26N 31°22' E 121°28'13231.7
2014-Dec-16 00:23N 31°22' E 121°43'0 0.0
2014-Dec-15 23:33N 31°22' E 121°43'13797.2
2014-Dec-15 23:32N 31°22' E 121°28'1313.3
2014-Dec-15 22:33N 31°22' E 121°43'131271.2
2014-Dec-15 22:33N 31°22' E 121°28'1313.2
2014-Dec-15 21:33N 31°22' E 121°43'132766.7
2014-Dec-15 21:33N 31°22' E 121°28'0 0.1
2014-Dec-15 20:33N 31°22' E 121°28'1315616.4
2014-Dec-15 20:33N 31°22' E 121°43'1313.0
2014-Dec-15 19:33N 31°22' E 121°28'133603.8
2014-Dec-15 19:33N 31°22' E 121°43'20728675.7
2014-Dec-15 19:33N 28°01' E 120°43'207209.3
2014-Dec-15 18:33N 31°22' E 121°43'1346849.1
2014-Dec-15 18:33N 31°22' E 121°28'0 0.0
2014-Dec-15 17:33N 31°22' E 121°28'133904.1
2014-Dec-15 17:33N 31°22' E 121°43'0 0.0
2014-Dec-15 16:33N 31°22' E 121°43'132351.7
2014-Dec-15 16:33N 31°22' E 121°28'0 0.0
2014-Dec-15 15:33N 31°22' E 121°28'1323516.7
2014-Dec-15 15:33N 31°22' E 121°43'1313.1
2014-Dec-15 14:33N 31°22' E 121°28'1323516.8
2014-Dec-15 14:33N 31°22' E 121°43'1312.9
2014-Dec-15 13:33N 31°22' E 121°28'132230.9
2014-Dec-15 13:33N 31°22' E 121°43'0 0.0
2014-Dec-15 12:33N 31°22' E 121°43'131952.1
2014-Dec-15 12:33N 31°22' E 121°28'1313.1
2014-Dec-15 11:33N 31°22' E 121°43'133346.4
2014-Dec-15 11:33N 31°22' E 121°28'1313.0
2014-Dec-15 10:33N 31°22' E 121°43'131338.5
2014-Dec-15 10:33N 31°22' E 121°28'0 0.0
2014-Dec-15 09:33N 31°22' E 121°28'132213.3
2014-Dec-15 09:33N 31°22' E 121°43'0 0.0
2014-Dec-15 08:33N 31°22' E 121°43'131166.6
2014-Dec-15 08:33N 31°22' E 121°28'0 0.1
2014-Dec-15 07:33N 31°22' E 121°28'133575.4
2014-Dec-15 07:33N 31°22' E 121°43'1313.0
2014-Dec-15 06:33N 31°22' E 121°28'133575.4
2014-Dec-15 06:33N 31°22' E 121°43'1313.0
2014-Dec-15 05:33N 31°22' E 121°28'1311620.1
2014-Dec-15 05:33N 31°22' E 121°43'2160.2
2014-Dec-15 05:12N 31°05' E 121°28'2132.5
2014-Dec-15 04:33N 31°22' E 121°43'135833.1
2014-Dec-15 04:33N 31°22' E 121°28'1739.4
2014-Dec-15 04:07N 31°05' E 121°28'1729.9
2014-Dec-15 03:33N 31°22' E 121°28'133346.3
2014-Dec-15 03:33N 31°22' E 121°43'21131.4
2014-Dec-15 03:24N 31°05' E 121°28'1719.9
2014-Dec-15 02:33N 31°22' E 121°28'131111.1
2014-Dec-15 02:32N 31°22' E 121°43'1313.2
2014-Dec-15 01:33N 31°22' E 121°28'131419.7
2014-Dec-15 01:33N 31°22' E 121°43'1313.1
2014-Dec-15 00:33N 31°22' E 121°28'1323424.4
2014-Dec-15 00:33N 31°22' E 121°43'0 0.0
2014-Dec-14 23:33N 31°22' E 121°43'132465.7
2014-Dec-14 23:33N 31°22' E 121°28'0 0.0
2014-Dec-14 22:33N 31°22' E 121°28'131377.9
2014-Dec-14 22:33N 31°22' E 121°43'22144.5
2014-Dec-14 22:24N 31°37' E 121°25'1518.3
2014-Dec-14 21:33N 31°22' E 121°28'132036.9
2014-Dec-14 21:33N 31°22' E 121°43'22956.8
2014-Dec-14 21:32N 31°37' E 121°25'0 0.0
2014-Dec-14 20:34N 31°37' E 121°25'268619.1
2014-Dec-14 20:33N 31°11' E 121°28'1710416.6
2014-Dec-14 20:33N 31°22' E 121°43'131735.1
2014-Dec-14 20:33N 31°22' E 121°28'1313.1
2014-Dec-14 19:33N 31°22' E 121°43'135856.1
2014-Dec-14 19:33N 31°22' E 121°28'151538.5
2014-Dec-14 19:33N 31°37' E 121°25'2222.1
2014-Dec-14 18:33N 31°22' E 121°43'132755.8
2014-Dec-14 18:33N 31°22' E 121°28'1588.5
2014-Dec-14 18:23N 31°37' E 121°25'2226.6
2014-Dec-14 17:33N 31°22' E 121°43'132602.7
2014-Dec-14 17:33N 31°22' E 121°28'2 6.8
2014-Dec-14 17:16N 31°23' E 121°30'1115.9
2014-Dec-14 16:33N 31°22' E 121°43'135856.1
2014-Dec-14 16:33N 31°22' E 121°28'0 0.0
2014-Dec-14 15:33N 31°22' E 121°28'1323424.4
2014-Dec-14 15:33N 31°22' E 121°43'1313.0
2014-Dec-14 14:33N 31°22' E 121°28'1346848.9
2014-Dec-14 14:33N 31°22' E 121°43'2245.5
2014-Dec-14 14:05N 31°37' E 121°25'2241.8
2014-Dec-14 13:33N 31°22' E 121°43'131232.9
2014-Dec-14 13:33N 31°22' E 121°28'15335.7
2014-Dec-14 13:30N 31°37' E 121°25'1516.3
2014-Dec-14 12:33N 31°22' E 121°28'1315616.3
2014-Dec-14 12:33N 31°22' E 121°43'22769.2
2014-Dec-14 12:32N 31°37' E 121°25'1515.9
2014-Dec-14 11:33N 31°22' E 121°28'133904.1
2014-Dec-14 11:33N 31°22' E 121°43'22825.9
2014-Dec-14 11:32N 31°37' E 121°25'1515.9
2014-Dec-14 10:33N 31°22' E 121°28'1346664.5
2014-Dec-14 10:33N 31°22' E 121°43'22146.7
2014-Dec-14 10:25N 31°37' E 121°25'1518.1
2014-Dec-14 09:33N 31°22' E 121°28'1311666.1
2014-Dec-14 09:33N 31°22' E 121°43'22834.7
2014-Dec-14 09:32N 31°37' E 121°25'1515.8
2014-Dec-14 08:33N 31°22' E 121°28'1346664.5
2014-Dec-14 08:33N 31°22' E 121°43'2268.6
2014-Dec-14 08:14N 31°37' E 121°25'1522.6
2014-Dec-14 07:33N 31°22' E 121°28'1346848.8
2014-Dec-14 07:33N 31°22' E 121°43'221452.9
2014-Dec-14 07:33N 31°37' E 121°25'2222.1
2014-Dec-14 06:33N 31°22' E 121°43'131615.5
2014-Dec-14 06:33N 31°22' E 121°28'15133.1
2014-Dec-14 06:26N 31°37' E 121°25'2224.8
2014-Dec-14 05:33N 31°22' E 121°43'131801.9
2014-Dec-14 05:33N 31°22' E 121°28'1556.7
2014-Dec-14 05:17N 31°37' E 121°25'32206.9
2014-Dec-14 05:07N 31°05' E 121°28'1729.3
2014-Dec-14 04:33N 31°22' E 121°28'132129.5
2014-Dec-14 04:32N 31°22' E 121°43'22266.9
2014-Dec-14 04:28N 31°37' E 121°25'2224.1
2014-Dec-14 03:33N 31°22' E 121°43'1346848.9
2014-Dec-14 03:33N 31°22' E 121°28'1532.3
2014-Dec-14 03:05N 31°37' E 121°25'2242.1
2014-Dec-14 02:33N 31°22' E 121°43'12148.4
2014-Dec-14 02:28N 31°22' E 121°29'1552.9
2014-Dec-14 02:11N 31°37' E 121°25'2234.5
2014-Dec-14 01:33N 31°22' E 121°43'1214885.7
2014-Dec-14 01:33N 31°22' E 121°29'15189.9
2014-Dec-14 01:29N 31°37' E 121°25'2223.6
2014-Dec-14 00:33N 31°22' E 121°43'123721.4
2014-Dec-14 00:33N 31°22' E 121°29'15134.1
2014-Dec-14 00:26N 31°37' E 121°25'2224.7
2014-Dec-13 23:33N 31°22' E 121°43'22164.8
2014-Dec-13 23:26N 31°37' E 121°25'2225.1
2014-Dec-13 22:34N 31°22' E 121°43'1214885.7
2014-Dec-13 22:33N 31°22' E 121°29'1212.4
2014-Dec-13 21:34N 31°22' E 121°43'1214885.7
2014-Dec-13 21:33N 31°22' E 121°29'15190.5
2014-Dec-13 21:29N 31°37' E 121°25'2223.7
2014-Dec-13 20:33N 31°22' E 121°43'1214885.5
2014-Dec-13 20:33N 31°22' E 121°29'1530.9
2014-Dec-13 20:04N 31°37' E 121°25'2242.4
2014-Dec-13 19:33N 31°22' E 121°43'133618.0
2014-Dec-13 19:33N 31°22' E 121°28'0 0.0
2014-Dec-13 18:33N 31°22' E 121°28'132475.5
2014-Dec-13 18:33N 31°22' E 121°43'0 0.0
2014-Dec-13 17:33N 31°22' E 121°43'133919.5
2014-Dec-13 17:33N 31°22' E 121°28'1313.1
2014-Dec-13 16:33N 31°22' E 121°43'132137.9
2014-Dec-13 16:33N 31°22' E 121°28'1313.1
2014-Dec-13 15:33N 31°22' E 121°43'134703.4
2014-Dec-13 15:33N 31°22' E 121°28'1313.1
2014-Dec-13 14:34N 31°22' E 121°43'132137.9
2014-Dec-13 14:33N 31°22' E 121°28'1313.1
2014-Dec-13 13:33N 31°22' E 121°43'1323516.9
2014-Dec-13 13:33N 31°22' E 121°28'1313.1
2014-Dec-13 12:33N 31°22' E 121°43'1323516.9
2014-Dec-13 12:33N 31°22' E 121°28'1313.1
2014-Dec-13 11:33N 31°22' E 121°43'132239.7
2014-Dec-13 11:33N 31°22' E 121°28'1596.1
2014-Dec-13 11:24N 31°37' E 121°25'2226.1
2014-Dec-13 10:33N 31°22' E 121°43'1323516.9
2014-Dec-13 10:33N 31°22' E 121°28'1313.1
2014-Dec-13 09:34N 31°22' E 121°43'132044.9
2014-Dec-13 09:33N 31°22' E 121°28'799.0
2014-Dec-13 09:29N 31°17' E 121°34'21340.6
2014-Dec-13 09:25N 31°37' E 121°25'2225.2
2014-Dec-13 08:33N 31°22' E 121°43'13653.2
2014-Dec-13 08:32N 31°22' E 121°28'1533.9
2014-Dec-13 08:05N 31°37' E 121°25'1529.6
2014-Dec-13 07:33N 31°21' E 121°28'132534.0
2014-Dec-13 07:33N 31°22' E 121°43'22304.1
2014-Dec-13 07:29N 31°37' E 121°25'1617.0
2014-Dec-13 06:32N 31°21' E 121°26'2033020.5
2014-Dec-13 06:28N 28°02' E 120°41'203219.0
2014-Dec-13 05:33N 31°21' E 121°26'0 0.0
2014-Dec-13 04:33N 31°21' E 121°26'15119.5
2014-Dec-13 04:26N 31°22' E 121°43'2274.2
2014-Dec-13 04:09N 31°37' E 121°25'1627.3
2014-Dec-13 03:33N 31°21' E 121°26'157494.4
2014-Dec-13 03:33N 31°22' E 121°43'0 0.0
2014-Dec-13 02:33N 31°22' E 121°43'76175.8
2014-Dec-13 02:08N 32°04' E 120°30'73127.6
2014-Dec-13 01:33N 31°22' E 121°39'111712.9
2014-Dec-13 01:33N 31°21' E 121°26'1614327.6
2014-Dec-13 01:33N 31°37' E 121°25'0 0.0
2014-Dec-13 00:33N 31°37' E 121°25'2311578.6
2014-Dec-13 00:33N 31°15' E 121°31'81844.4
2014-Dec-13 00:33N 31°23' E 121°30'41229.7
2014-Dec-13 00:33N 31°21' E 121°26'0 0.0
2014-Dec-12 23:33N 31°21' E 121°26'16148.9
2014-Dec-12 23:27N 31°37' E 121°25'216169.2
2014-Dec-12 23:26N 31°18' E 121°34'0 0.0
2014-Dec-12 22:33N 31°18' E 121°34'7609.2
2014-Dec-12 22:32N 31°21' E 121°26'16141.2
2014-Dec-12 22:25N 31°37' E 121°25'1618.4
2014-Dec-12 21:33N 31°21' E 121°26'169555.3
2014-Dec-12 21:33N 31°37' E 121°25'1514.9
2014-Dec-12 20:33N 31°22' E 121°29'15398.9
2014-Dec-12 20:31N 31°37' E 121°25'1313.7
2014-Dec-12 19:32N 31°24' E 121°31'1390.9
2014-Dec-12 19:24N 31°37' E 121°25'1315.9
2014-Dec-12 18:33N 31°24' E 121°31'13138.4
2014-Dec-12 18:28N 31°37' E 121°25'1314.3
2014-Dec-12 17:31N 31°24' E 121°31'0 0.1
2014-Dec-12 16:33N 31°24' E 121°31'2 1.9
2014-Dec-12 15:33N 31°26' E 121°29'6 6.4
2014-Dec-12 14:33N 31°30' E 121°23'6 5.9
2014-Dec-12 13:32N 31°34' E 121°18'6 6.3
2014-Dec-12 12:33N 31°39' E 121°14'1093.1
2014-Dec-12 12:27N 31°37' E 121°25'1516.4
2014-Dec-12 11:33N 31°42' E 121°08'32190.2
2014-Dec-12 11:23N 31°18' E 121°34'21104.7
2014-Dec-12 11:11N 31°37' E 121°25'1929.4
2014-Dec-12 10:33N 31°45' E 121°05'19359.9
2014-Dec-12 10:30N 31°37' E 121°25'2159.2
2014-Dec-12 10:09N 31°18' E 121°34'3863.5
2014-Dec-12 09:33N 31°45' E 121°03'201843.3
2014-Dec-12 09:33N 31°37' E 121°25'2020.0
2014-Dec-12 08:31N 31°45' E 121°03'38262.7
2014-Dec-12 08:23N 31°18' E 121°34'3947.4
2014-Dec-12 07:33N 31°46' E 121°02'307301.0
2014-Dec-12 06:32N 26°46' E 119°43'0 0.0
2014-Dec-12 05:32N 26°46' E 119°43'3137469.0
2014-Dec-12 05:30N 31°54' E 120°53'3234.0
2014-Dec-12 04:33N 31°37' E 121°25'383301.1
2014-Dec-12 04:33N 31°59' E 120°49'31929400.1
2014-Dec-12 04:32N 26°46' E 119°43'2889341.2
2014-Dec-12 04:30N 31°18' E 121°34'6264.9
2014-Dec-12 03:33N 31°60' E 120°41'4439180.6
2014-Dec-12 03:33N 31°37' E 121°25'30416325.2
2014-Dec-12 03:32N 26°46' E 119°43'318323.1
2014-Dec-12 02:33N 32°01' E 120°33'50252.4
2014-Dec-12 02:21N 31°37' E 121°25'30415625.5
2014-Dec-12 02:20N 26°46' E 119°43'2882391.2
2014-Dec-12 02:13N 31°17' E 121°34'73111.6
2014-Dec-12 01:33N 32°01' E 120°25'5612596.1
2014-Dec-12 01:33N 31°37' E 121°25'21119.5
2014-Dec-12 01:22N 31°17' E 121°34'13536.4
2014-Dec-12 01:21N 31°05' E 121°28'7898.4
2014-Dec-12 00:33N 31°58' E 120°20'593270.0
2014-Dec-12 00:32N 31°37' E 121°25'21127.4
2014-Dec-12 00:22N 31°17' E 121°34'7895.7
2014-Dec-11 23:33N 31°56' E 120°15'7823362.7
2014-Dec-11 23:33N 31°17' E 121°34'2176.8
2014-Dec-11 23:17N 31°37' E 121°25'6792.5
2014-Dec-11 22:33N 31°56' E 120°09'8259180.3
2014-Dec-11 22:33N 31°17' E 121°34'2162.0
2014-Dec-11 22:12N 31°37' E 121°25'73112.8
2014-Dec-11 21:34N 31°58' E 120°03'885174.3
2014-Dec-11 21:32N 31°17' E 121°34'0 0.0
2014-Dec-11 20:30N 31°17' E 121°34'21179.6
2014-Dec-11 20:23N 31°37' E 121°25'3042052.1
2014-Dec-11 20:14N 26°46' E 119°43'288421.6
2014-Dec-11 19:33N 31°17' E 121°34'2138350.6
2014-Dec-11 19:33N 31°37' E 121°25'30415191.2
2014-Dec-11 19:32N 26°46' E 119°43'288293.6
2014-Dec-11 18:33N 31°17' E 121°34'21166.4
2014-Dec-11 18:26N 31°37' E 121°25'2124.0
2014-Dec-11 17:32N 31°17' E 121°34'21136.6
2014-Dec-11 17:23N 31°37' E 121°25'0 0.0
2014-Dec-11 16:32N 31°37' E 121°25'21703.7
2014-Dec-11 16:30N 31°17' E 121°34'0 0.0
2014-Dec-11 15:31N 31°17' E 121°34'21421.5
2014-Dec-11 15:28N 31°37' E 121°25'0 0.0
2014-Dec-11 14:33N 31°37' E 121°25'21147.8
2014-Dec-11 14:24N 31°17' E 121°34'0 0.0
2014-Dec-11 13:25N 31°17' E 121°34'21217.9
2014-Dec-11 13:19N 31°37' E 121°25'2123.6
2014-Dec-11 12:25N 31°17' E 121°34'0 0.0
2014-Dec-11 11:25N 31°17' E 121°34'211198.8
2014-Dec-11 11:24N 31°37' E 121°25'0 0.0
2014-Dec-11 10:30N 31°37' E 121°25'0 0.0
2014-Dec-11 09:32N 31°37' E 121°25'21142.6
2014-Dec-11 09:23N 31°17' E 121°34'2125.6
2014-Dec-11 08:33N 31°37' E 121°25'21105.5
2014-Dec-11 08:21N 31°17' E 121°34'0 0.1
2014-Dec-11 07:33N 31°17' E 121°34'201017.6
2014-Dec-11 07:32N 31°36' E 121°25'2020.4
2014-Dec-11 06:32N 31°17' E 121°34'1 0.3
2014-Dec-11 04:32N 31°18' E 121°34'143779.8
2014-Dec-11 04:32N 31°05' E 121°28'1411.1
2014-Dec-11 03:18N 31°18' E 121°34'0 0.0
2014-Dec-11 02:31N 31°18' E 121°34'0 0.0
2014-Dec-11 01:33N 31°18' E 121°34'0 0.1
2014-Dec-11 00:10N 31°18' E 121°34'0 0.0
2014-Dec-10 23:28N 31°18' E 121°34'0 0.0
2014-Dec-10 22:12N 31°18' E 121°34'0 0.0
2014-Dec-10 21:18N 31°18' E 121°34'0 0.0
2014-Dec-10 20:33N 31°18' E 121°34'0 0.0
2014-Dec-10 17:27N 31°18' E 121°34'0 0.0
2014-Dec-10 16:29N 31°18' E 121°34'0 0.0
2014-Dec-10 15:04N 31°18' E 121°34'  
Track history (hours):
 
Tides and Currents Weather Stations Pressure Air Temp Water Temp Dewpoint Dewpoint Depression Visibility Wind Speed Wind Dir Waves Ship Positions

Spaceon02064

Last reported at 2014-Dec-20 14:34 UTC. Time now 2014-Dec-20 15:08 UTC.
Position N 31°22' E 121°43'.

Length 6 m.

Type: Ship. MMSI: 200902064.

Date/timePositionNaut miles runAvg speedWind from/ knotsBaromVisibWave heightAir tempDewpointWater temp
2014-Dec-20 14:34N 31°22' E 121°43'192626.8
2014-Dec-20 14:33N 31°09' E 121°27'822747.7
2014-Dec-20 14:31N 29°54' E 122°08'9093.7
2014-Dec-20 13:34N 31°22' E 121°43'17421.2
2014-Dec-20 13:31N 31°11' E 121°28'90997.1
2014-Dec-20 13:26N 29°47' E 122°04'97111.2
2014-Dec-20 12:34N 31°22' E 121°43'17415.6
2014-Dec-20 12:31N 31°11' E 121°28'1717.6
2014-Dec-20 11:33N 31°22' E 121°43'17412.8
2014-Dec-20 11:31N 31°11' E 121°28'0 0.4
2014-Dec-20 10:31N 31°11' E 121°28'16411.6
2014-Dec-20 10:29N 31°22' E 121°43'0 0.0
2014-Dec-20 09:34N 31°22' E 121°43'15378.8
2014-Dec-20 09:31N 31°12' E 121°29'1516.0
2014-Dec-20 08:34N 31°22' E 121°43'14355.2
2014-Dec-20 08:31N 31°13' E 121°30'1414.6
2014-Dec-20 07:33N 31°22' E 121°43'141189.1
2014-Dec-20 07:33N 31°15' E 121°29'1414.0
2014-Dec-20 06:33N 31°22' E 121°43'11115.3
2014-Dec-20 06:28N 31°15' E 121°32'1112.6
2014-Dec-20 05:34N 31°22' E 121°43'21221.6
2014-Dec-20 05:28N 31°05' E 121°28'12333.3
2014-Dec-20 05:26N 30°57' E 121°17'3338.2
2014-Dec-20 04:34N 31°19' E 121°47'296452.4
2014-Dec-20 04:33N 30°59' E 121°22'2928.7
2014-Dec-20 03:33N 31°19' E 121°47'11123.7
2014-Dec-20 03:28N 31°17' E 121°34'1111.9
2014-Dec-20 02:34N 31°19' E 121°47'20422.8
2014-Dec-20 02:31N 31°07' E 121°28'1135.7
2014-Dec-20 02:12N 31°17' E 121°34'1116.9
2014-Dec-20 01:34N 31°19' E 121°47'18902.1
2014-Dec-20 01:32N 31°11' E 121°28'8222.1
2014-Dec-20 01:30N 31°17' E 121°34'516.8
2014-Dec-20 01:13N 31°14' E 121°30'1523.4
2014-Dec-20 00:34N 31°19' E 121°47'12357.7
2014-Dec-20 00:32N 31°16' E 121°33'1232.2
2014-Dec-20 00:09N 31°05' E 121°28'2135.4
2014-Dec-19 23:34N 31°19' E 121°47'1527035.1
2014-Dec-19 23:33N 31°13' E 121°30'724.4
2014-Dec-19 23:15N 31°20' E 121°33'1216.9
2014-Dec-19 22:33N 31°19' E 121°47'202267.5
2014-Dec-19 22:33N 31°09' E 121°27'131089.9
2014-Dec-19 22:32N 31°22' E 121°30'0 0.7
2014-Dec-19 22:13N 31°22' E 121°30'1522.3
2014-Dec-19 21:34N 31°19' E 121°47'2213270.6
2014-Dec-19 21:33N 31°03' E 121°29'22719.6
2014-Dec-19 21:32N 31°25' E 121°30'23124.7
2014-Dec-19 21:20N 31°41' E 121°11'3848.8
2014-Dec-19 20:34N 31°19' E 121°47'279598.2
2014-Dec-19 20:33N 30°60' E 121°25'3271.5
2014-Dec-19 20:06N 31°32' E 121°21'2647.2
2014-Dec-19 19:34N 31°19' E 121°47'30455.8
2014-Dec-19 19:30N 31°35' E 121°17'3032.0
2014-Dec-19 18:34N 31°19' E 121°47'368181.2
2014-Dec-19 18:33N 31°40' E 121°12'1 3.2
2014-Dec-19 18:15N 31°41' E 121°11'3753.7
2014-Dec-19 17:33N 31°19' E 121°47'4215098.9
2014-Dec-19 17:33N 31°43' E 121°07'0 2.7
2014-Dec-19 17:25N 31°43' E 121°06'4249.3
2014-Dec-19 16:34N 31°19' E 121°47'46857.2
2014-Dec-19 16:30N 31°45' E 121°03'4648.3
2014-Dec-19 15:34N 31°19' E 121°47'465147.0
2014-Dec-19 15:33N 31°45' E 121°03'4646.2
2014-Dec-19 14:34N 31°19' E 121°47'46596.9
2014-Dec-19 14:29N 31°45' E 121°03'4649.6
2014-Dec-19 13:34N 31°19' E 121°47'46319.4
2014-Dec-19 13:25N 31°45' E 121°03'4653.3
2014-Dec-19 12:33N 31°19' E 121°47'0 0.0
2014-Dec-19 11:34N 31°19' E 121°47'0 0.0
2014-Dec-19 10:34N 31°19' E 121°47'0 0.0
2014-Dec-19 09:33N 31°19' E 121°47'62750.6
2014-Dec-19 09:28N 31°58' E 120°51'5863.3
2014-Dec-19 08:34N 31°22' E 121°43'638404.3
2014-Dec-19 08:33N 32°00' E 120°45'6363.5
2014-Dec-19 07:33N 31°22' E 121°43'21891.6
2014-Dec-19 07:32N 31°05' E 121°28'70742.9
2014-Dec-19 07:26N 31°60' E 120°38'6776.4
2014-Dec-19 06:33N 31°22' E 121°43'7110626.2
2014-Dec-19 06:33N 32°00' E 120°34'314.0
2014-Dec-19 06:22N 32°01' E 120°31'7390.9
2014-Dec-19 05:33N 31°22' E 121°43'7453597.9
2014-Dec-19 05:33N 32°02' E 120°29'2237.4
2014-Dec-19 05:33N 32°01' E 120°27'77185.9
2014-Dec-19 05:08N 31°05' E 121°28'2137.0
2014-Dec-19 04:33N 31°22' E 121°43'7746185.0
2014-Dec-19 04:33N 32°01' E 120°26'78734.6
2014-Dec-19 04:27N 31°05' E 121°28'2123.9
2014-Dec-19 03:33N 31°22' E 121°43'7956673.0
2014-Dec-19 03:33N 31°59' E 120°22'783475.9
2014-Dec-19 03:32N 31°05' E 121°28'2121.9
2014-Dec-19 02:34N 31°22' E 121°43'8249194.3
2014-Dec-19 02:33N 31°56' E 120°16'80144109.4
2014-Dec-19 02:33N 31°05' E 121°28'2121.3
2014-Dec-19 01:33N 31°22' E 121°43'88158038.5
2014-Dec-19 01:33N 31°56' E 120°08'858733.3
2014-Dec-19 01:33N 31°05' E 121°28'2121.6
2014-Dec-19 00:33N 31°22' E 121°43'0 0.1
2014-Dec-18 23:34N 31°22' E 121°43'0 0.0
2014-Dec-18 22:33N 31°22' E 121°43'0 0.0
2014-Dec-18 21:34N 31°22' E 121°43'0 0.0
2014-Dec-18 20:33N 31°22' E 121°43'0 0.0
2014-Dec-18 19:33N 31°22' E 121°43'0 0.0
2014-Dec-18 18:33N 31°22' E 121°43'0 0.0
2014-Dec-18 17:34N 31°22' E 121°43'0 0.0
2014-Dec-18 16:33N 31°22' E 121°43'0 0.0
2014-Dec-18 15:34N 31°22' E 121°43'1934274.2
2014-Dec-18 15:33N 31°08' E 121°27'1919.0
2014-Dec-18 14:34N 31°22' E 121°43'162722.6
2014-Dec-18 14:33N 31°12' E 121°29'1616.0
2014-Dec-18 13:33N 31°22' E 121°43'13824.9
2014-Dec-18 13:33N 31°15' E 121°30'61605.7
2014-Dec-18 13:26N 32°02' E 120°45'6472.6
2014-Dec-18 12:33N 31°22' E 121°43'64760.8
2014-Dec-18 12:28N 32°02' E 120°45'68211.4
2014-Dec-18 12:09N 31°05' E 121°28'610.6
2014-Dec-18 11:34N 30°60' E 121°24'2899294.6
2014-Dec-18 11:34N 31°22' E 121°43'215121.6
2014-Dec-18 11:33N 31°05' E 121°28'76426.7
2014-Dec-18 11:23N 31°60' E 120°27'67471.4
2014-Dec-18 11:14N 31°21' E 121°31'913.6
2014-Dec-18 10:34N 31°22' E 121°41'106926.3
2014-Dec-18 10:33N 31°23' E 121°30'196670.2
2014-Dec-18 10:33N 31°05' E 121°28'7823276.7
2014-Dec-18 10:33N 31°58' E 120°22'7877.9
2014-Dec-18 09:33N 31°05' E 121°28'194591.1
2014-Dec-18 09:33N 31°23' E 121°33'3127986.3
2014-Dec-18 09:33N 30°58' E 121°13'321998.5
2014-Dec-18 09:32N 31°26' E 121°29'7 6.8
2014-Dec-18 08:34N 31°21' E 121°33'3127823.9
2014-Dec-18 08:33N 30°58' E 121°08'19249.2
2014-Dec-18 08:29N 31°05' E 121°28'0 0.0
2014-Dec-18 07:31N 31°05' E 121°28'24353.1
2014-Dec-18 07:27N 30°57' E 121°01'34323.5
2014-Dec-18 07:21N 31°17' E 121°34'1316.0
2014-Dec-18 06:31N 31°05' E 121°28'13132.0
2014-Dec-18 06:25N 31°17' E 121°34'1315.2
2014-Dec-18 05:33N 31°05' E 121°28'8884.9
2014-Dec-18 04:31N 31°58' E 120°06'86301.4
2014-Dec-18 04:14N 31°17' E 121°34'80118.9
2014-Dec-18 03:33N 31°57' E 120°12'83319.7
2014-Dec-18 03:18N 31°05' E 121°28'14172.2
2014-Dec-18 03:13N 31°18' E 121°34'76114.4
2014-Dec-18 02:33N 31°58' E 120°18'802663.0
2014-Dec-18 02:32N 31°05' E 121°28'0 0.0
2014-Dec-18 01:33N 31°05' E 121°28'7823370.4
2014-Dec-18 01:33N 31°60' E 120°23'73176.0
2014-Dec-18 01:08N 31°18' E 121°34'72125.0
2014-Dec-18 00:34N 32°02' E 120°27'4 3.7
2014-Dec-17 23:33N 32°02' E 120°32'4 3.8
2014-Dec-17 22:32N 32°01' E 120°36'65436.4
2014-Dec-17 22:23N 31°18' E 121°34'6274.6
2014-Dec-17 21:33N 32°00' E 120°40'4 3.9
2014-Dec-17 20:33N 32°01' E 120°45'4 4.1
2014-Dec-17 19:33N 31°60' E 120°50'5 4.4
2014-Dec-17 18:29N 31°56' E 120°53'11 4.6
2014-Dec-17 16:11N 31°47' E 120°59'4 5.9
2014-Dec-17 15:34N 31°46' E 121°03'6 6.3
2014-Dec-17 14:33N 31°42' E 121°09'3295.2
2014-Dec-17 14:13N 31°18' E 121°34'0 0.3
2014-Dec-17 13:08N 31°17' E 121°34'3 4.5
2014-Dec-17 12:32N 31°20' E 121°33'1710119.5
2014-Dec-17 12:32N 31°33' E 121°21'1414.1
2014-Dec-17 11:33N 31°24' E 121°32'7 7.3
2014-Dec-17 10:33N 31°21' E 121°40'871.6
2014-Dec-17 10:26N 31°24' E 121°31'1011.8
2014-Dec-17 09:34N 31°22' E 121°43'132061.0
2014-Dec-17 09:33N 31°22' E 121°28'1313.2
2014-Dec-17 08:33N 31°22' E 121°43'131394.2
2014-Dec-17 08:33N 31°22' E 121°28'0 0.0
2014-Dec-17 07:33N 31°22' E 121°28'1311850.6
2014-Dec-17 07:33N 31°22' E 121°43'0 0.0
2014-Dec-17 06:33N 31°22' E 121°43'13351.1
2014-Dec-17 06:31N 31°22' E 121°28'0 0.0
2014-Dec-17 05:33N 31°22' E 121°28'137900.5
2014-Dec-17 05:33N 31°22' E 121°43'1313.2
2014-Dec-17 04:33N 31°22' E 121°28'137900.5
2014-Dec-17 04:33N 31°22' E 121°43'0 0.1
2014-Dec-17 03:33N 31°22' E 121°43'1315862.7
2014-Dec-17 03:33N 31°22' E 121°28'0 0.0
2014-Dec-17 02:33N 31°22' E 121°28'137931.3
2014-Dec-17 02:33N 31°22' E 121°43'1313.2
2014-Dec-17 01:33N 31°22' E 121°28'131359.7
2014-Dec-17 01:33N 31°22' E 121°43'2163.1
2014-Dec-17 01:13N 31°05' E 121°28'2132.6
2014-Dec-17 00:33N 31°22' E 121°43'1315801.1
2014-Dec-17 00:33N 31°22' E 121°28'1313.3
2014-Dec-16 23:34N 31°22' E 121°43'13729.3
2014-Dec-16 23:32N 31°22' E 121°28'1313.4
2014-Dec-16 22:33N 31°22' E 121°43'133135.6
2014-Dec-16 22:33N 31°22' E 121°28'987.4
2014-Dec-16 22:27N 31°29' E 121°24'9 9.6
2014-Dec-16 21:33N 31°22' E 121°28'13723.6
2014-Dec-16 21:32N 31°22' E 121°43'136535.5
2014-Dec-16 21:32N 31°26' E 121°29'221028.4
2014-Dec-16 21:31N 31°05' E 121°28'1717.6
2014-Dec-16 20:33N 31°22' E 121°28'139406.7
2014-Dec-16 20:33N 31°22' E 121°43'114551.0
2014-Dec-16 20:33N 31°22' E 121°30'17120.3
2014-Dec-16 20:25N 31°05' E 121°28'2125.0
2014-Dec-16 19:33N 31°22' E 121°43'104275.8
2014-Dec-16 19:33N 31°17' E 121°34'75098.9
2014-Dec-16 19:33N 31°22' E 121°28'17140.7
2014-Dec-16 19:26N 31°05' E 121°28'1719.3
2014-Dec-16 18:33N 31°22' E 121°28'13443.7
2014-Dec-16 18:32N 31°22' E 121°43'152775.9
2014-Dec-16 18:31N 31°12' E 121°30'8124.8
2014-Dec-16 18:28N 31°05' E 121°28'1718.6
2014-Dec-16 17:33N 31°22' E 121°28'133123.3
2014-Dec-16 17:33N 31°22' E 121°43'1313.1
2014-Dec-16 16:33N 31°22' E 121°28'137838.9
2014-Dec-16 16:33N 31°22' E 121°43'21625.6
2014-Dec-16 16:31N 31°05' E 121°28'2122.2
2014-Dec-16 15:34N 31°22' E 121°43'1315677.8
2014-Dec-16 15:33N 31°22' E 121°28'0 0.0
2014-Dec-16 14:34N 31°22' E 121°28'131621.8
2014-Dec-16 14:33N 31°22' E 121°43'1313.1
2014-Dec-16 13:33N 31°22' E 121°28'136692.7
2014-Dec-16 13:33N 31°22' E 121°43'1313.0
2014-Dec-16 12:33N 31°22' E 121°28'137808.2
2014-Dec-16 12:33N 31°22' E 121°43'1313.1
2014-Dec-16 11:33N 31°22' E 121°28'136719.1
2014-Dec-16 11:33N 31°22' E 121°43'0 0.0
2014-Dec-16 10:33N 31°22' E 121°43'13254.2
2014-Dec-16 10:30N 31°22' E 121°28'1313.8
2014-Dec-16 09:34N 31°22' E 121°43'131952.0
2014-Dec-16 09:33N 31°22' E 121°28'0 0.0
2014-Dec-16 08:33N 31°22' E 121°28'131874.0
2014-Dec-16 08:33N 31°22' E 121°43'0 0.0
2014-Dec-16 07:33N 31°22' E 121°43'131064.8
2014-Dec-16 07:32N 31°22' E 121°28'0 0.1
2014-Dec-16 06:33N 31°22' E 121°28'132766.7
2014-Dec-16 06:33N 31°22' E 121°43'21134.5
2014-Dec-16 06:24N 31°05' E 121°28'1720.0
2014-Dec-16 05:33N 31°22' E 121°28'1315677.9
2014-Dec-16 05:33N 31°22' E 121°43'0 0.0
2014-Dec-16 04:33N 31°22' E 121°43'132351.7
2014-Dec-16 04:33N 31°22' E 121°28'1313.0
2014-Dec-16 03:32N 31°22' E 121°43'137838.9
2014-Dec-16 03:32N 31°22' E 121°28'1313.2
2014-Dec-16 02:33N 31°22' E 121°43'131115.5
2014-Dec-16 02:32N 31°22' E 121°28'1311.1
2014-Dec-16 01:22N 31°22' E 121°43'13164.4
2014-Dec-16 01:17N 31°22' E 121°28'0 0.1
2014-Dec-16 00:26N 31°22' E 121°28'13231.7
2014-Dec-16 00:23N 31°22' E 121°43'0 0.0
2014-Dec-15 23:33N 31°22' E 121°43'13797.2
2014-Dec-15 23:32N 31°22' E 121°28'1313.3
2014-Dec-15 22:33N 31°22' E 121°43'131271.2
2014-Dec-15 22:33N 31°22' E 121°28'1313.2
2014-Dec-15 21:33N 31°22' E 121°43'132766.7
2014-Dec-15 21:33N 31°22' E 121°28'0 0.1
2014-Dec-15 20:33N 31°22' E 121°28'1315616.4
2014-Dec-15 20:33N 31°22' E 121°43'1313.0
2014-Dec-15 19:33N 31°22' E 121°28'133603.8
2014-Dec-15 19:33N 31°22' E 121°43'20728675.7
2014-Dec-15 19:33N 28°01' E 120°43'207209.3
2014-Dec-15 18:33N 31°22' E 121°43'1346849.1
2014-Dec-15 18:33N 31°22' E 121°28'0 0.0
2014-Dec-15 17:33N 31°22' E 121°28'133904.1
2014-Dec-15 17:33N 31°22' E 121°43'0 0.0
2014-Dec-15 16:33N 31°22' E 121°43'132351.7
2014-Dec-15 16:33N 31°22' E 121°28'0 0.0
2014-Dec-15 15:33N 31°22' E 121°28'1323516.7
2014-Dec-15 15:33N 31°22' E 121°43'1313.1
2014-Dec-15 14:33N 31°22' E 121°28'1323516.8
2014-Dec-15 14:33N 31°22' E 121°43'1312.9
2014-Dec-15 13:33N 31°22' E 121°28'132230.9
2014-Dec-15 13:33N 31°22' E 121°43'0 0.0
2014-Dec-15 12:33N 31°22' E 121°43'131952.1
2014-Dec-15 12:33N 31°22' E 121°28'1313.1
2014-Dec-15 11:33N 31°22' E 121°43'133346.4
2014-Dec-15 11:33N 31°22' E 121°28'1313.0
2014-Dec-15 10:33N 31°22' E 121°43'131338.5
2014-Dec-15 10:33N 31°22' E 121°28'0 0.0
2014-Dec-15 09:33N 31°22' E 121°28'132213.3
2014-Dec-15 09:33N 31°22' E 121°43'0 0.0
2014-Dec-15 08:33N 31°22' E 121°43'131166.6
2014-Dec-15 08:33N 31°22' E 121°28'0 0.1
2014-Dec-15 07:33N 31°22' E 121°28'133575.4
2014-Dec-15 07:33N 31°22' E 121°43'1313.0
2014-Dec-15 06:33N 31°22' E 121°28'133575.4
2014-Dec-15 06:33N 31°22' E 121°43'1313.0
2014-Dec-15 05:33N 31°22' E 121°28'1311620.1
2014-Dec-15 05:33N 31°22' E 121°43'2160.2
2014-Dec-15 05:12N 31°05' E 121°28'2132.5
2014-Dec-15 04:33N 31°22' E 121°43'135833.1
2014-Dec-15 04:33N 31°22' E 121°28'1739.4
2014-Dec-15 04:07N 31°05' E 121°28'1729.9
2014-Dec-15 03:33N 31°22' E 121°28'133346.3
2014-Dec-15 03:33N 31°22' E 121°43'21131.4
2014-Dec-15 03:24N 31°05' E 121°28'1719.9
2014-Dec-15 02:33N 31°22' E 121°28'131111.1
2014-Dec-15 02:32N 31°22' E 121°43'1313.2
2014-Dec-15 01:33N 31°22' E 121°28'131419.7
2014-Dec-15 01:33N 31°22' E 121°43'1313.1
2014-Dec-15 00:33N 31°22' E 121°28'1323424.4
2014-Dec-15 00:33N 31°22' E 121°43'0 0.0
2014-Dec-14 23:33N 31°22' E 121°43'132465.7
2014-Dec-14 23:33N 31°22' E 121°28'0 0.0
2014-Dec-14 22:33N 31°22' E 121°28'131377.9
2014-Dec-14 22:33N 31°22' E 121°43'22144.5
2014-Dec-14 22:24N 31°37' E 121°25'1518.3
2014-Dec-14 21:33N 31°22' E 121°28'132036.9
2014-Dec-14 21:33N 31°22' E 121°43'22956.8
2014-Dec-14 21:32N 31°37' E 121°25'0 0.0
2014-Dec-14 20:34N 31°37' E 121°25'268619.1
2014-Dec-14 20:33N 31°11' E 121°28'1710416.6
2014-Dec-14 20:33N 31°22' E 121°43'131735.1
2014-Dec-14 20:33N 31°22' E 121°28'1313.1
2014-Dec-14 19:33N 31°22' E 121°43'135856.1
2014-Dec-14 19:33N 31°22' E 121°28'151538.5
2014-Dec-14 19:33N 31°37' E 121°25'2222.1
2014-Dec-14 18:33N 31°22' E 121°43'132755.8
2014-Dec-14 18:33N 31°22' E 121°28'1588.5
2014-Dec-14 18:23N 31°37' E 121°25'2226.6
2014-Dec-14 17:33N 31°22' E 121°43'132602.7
2014-Dec-14 17:33N 31°22' E 121°28'2 6.8
2014-Dec-14 17:16N 31°23' E 121°30'1115.9
2014-Dec-14 16:33N 31°22' E 121°43'135856.1
2014-Dec-14 16:33N 31°22' E 121°28'0 0.0
2014-Dec-14 15:33N 31°22' E 121°28'1323424.4
2014-Dec-14 15:33N 31°22' E 121°43'1313.0
2014-Dec-14 14:33N 31°22' E 121°28'1346848.9
2014-Dec-14 14:33N 31°22' E 121°43'2245.5
2014-Dec-14 14:05N 31°37' E 121°25'2241.8
2014-Dec-14 13:33N 31°22' E 121°43'131232.9
2014-Dec-14 13:33N 31°22' E 121°28'15335.7
2014-Dec-14 13:30N 31°37' E 121°25'1516.3
2014-Dec-14 12:33N 31°22' E 121°28'1315616.3
2014-Dec-14 12:33N 31°22' E 121°43'22769.2
2014-Dec-14 12:32N 31°37' E 121°25'1515.9
2014-Dec-14 11:33N 31°22' E 121°28'133904.1
2014-Dec-14 11:33N 31°22' E 121°43'22825.9
2014-Dec-14 11:32N 31°37' E 121°25'1515.9
2014-Dec-14 10:33N 31°22' E 121°28'1346664.5
2014-Dec-14 10:33N 31°22' E 121°43'22146.7
2014-Dec-14 10:25N 31°37' E 121°25'1518.1
2014-Dec-14 09:33N 31°22' E 121°28'1311666.1
2014-Dec-14 09:33N 31°22' E 121°43'22834.7
2014-Dec-14 09:32N 31°37' E 121°25'1515.8
2014-Dec-14 08:33N 31°22' E 121°28'1346664.5
2014-Dec-14 08:33N 31°22' E 121°43'2268.6
2014-Dec-14 08:14N 31°37' E 121°25'1522.6
2014-Dec-14 07:33N 31°22' E 121°28'1346848.8
2014-Dec-14 07:33N 31°22' E 121°43'221452.9
2014-Dec-14 07:33N 31°37' E 121°25'2222.1
2014-Dec-14 06:33N 31°22' E 121°43'131615.5
2014-Dec-14 06:33N 31°22' E 121°28'15133.1
2014-Dec-14 06:26N 31°37' E 121°25'2224.8
2014-Dec-14 05:33N 31°22' E 121°43'131801.9
2014-Dec-14 05:33N 31°22' E 121°28'1556.7
2014-Dec-14 05:17N 31°37' E 121°25'32206.9
2014-Dec-14 05:07N 31°05' E 121°28'1729.3
2014-Dec-14 04:33N 31°22' E 121°28'132129.5
2014-Dec-14 04:32N 31°22' E 121°43'22266.9
2014-Dec-14 04:28N 31°37' E 121°25'2224.1
2014-Dec-14 03:33N 31°22' E 121°43'1346848.9
2014-Dec-14 03:33N 31°22' E 121°28'1532.3
2014-Dec-14 03:05N 31°37' E 121°25'2242.1
2014-Dec-14 02:33N 31°22' E 121°43'12148.4
2014-Dec-14 02:28N 31°22' E 121°29'1552.9
2014-Dec-14 02:11N 31°37' E 121°25'2234.5
2014-Dec-14 01:33N 31°22' E 121°43'1214885.7
2014-Dec-14 01:33N 31°22' E 121°29'15189.9
2014-Dec-14 01:29N 31°37' E 121°25'2223.6
2014-Dec-14 00:33N 31°22' E 121°43'123721.4
2014-Dec-14 00:33N 31°22' E 121°29'15134.1
2014-Dec-14 00:26N 31°37' E 121°25'2224.7
2014-Dec-13 23:33N 31°22' E 121°43'22164.8
2014-Dec-13 23:26N 31°37' E 121°25'2225.1
2014-Dec-13 22:34N 31°22' E 121°43'1214885.7
2014-Dec-13 22:33N 31°22' E 121°29'1212.4
2014-Dec-13 21:34N 31°22' E 121°43'1214885.7
2014-Dec-13 21:33N 31°22' E 121°29'15190.5
2014-Dec-13 21:29N 31°37' E 121°25'2223.7
2014-Dec-13 20:33N 31°22' E 121°43'1214885.5
2014-Dec-13 20:33N 31°22' E 121°29'1530.9
2014-Dec-13 20:04N 31°37' E 121°25'2242.4
2014-Dec-13 19:33N 31°22' E 121°43'133618.0
2014-Dec-13 19:33N 31°22' E 121°28'0 0.0
2014-Dec-13 18:33N 31°22' E 121°28'132475.5
2014-Dec-13 18:33N 31°22' E 121°43'0 0.0
2014-Dec-13 17:33N 31°22' E 121°43'133919.5
2014-Dec-13 17:33N 31°22' E 121°28'1313.1
2014-Dec-13 16:33N 31°22' E 121°43'132137.9
2014-Dec-13 16:33N 31°22' E 121°28'1313.1
2014-Dec-13 15:33N 31°22' E 121°43'134703.4
2014-Dec-13 15:33N 31°22' E 121°28'1313.1
2014-Dec-13 14:34N 31°22' E 121°43'132137.9
2014-Dec-13 14:33N 31°22' E 121°28'1313.1
2014-Dec-13 13:33N 31°22' E 121°43'1323516.9
2014-Dec-13 13:33N 31°22' E 121°28'1313.1
2014-Dec-13 12:33N 31°22' E 121°43'1323516.9
2014-Dec-13 12:33N 31°22' E 121°28'1313.1
2014-Dec-13 11:33N 31°22' E 121°43'132239.7
2014-Dec-13 11:33N 31°22' E 121°28'1596.1
2014-Dec-13 11:24N 31°37' E 121°25'2226.1
2014-Dec-13 10:33N 31°22' E 121°43'1323516.9
2014-Dec-13 10:33N 31°22' E 121°28'1313.1
2014-Dec-13 09:34N 31°22' E 121°43'132044.9
2014-Dec-13 09:33N 31°22' E 121°28'799.0
2014-Dec-13 09:29N 31°17' E 121°34'21340.6
2014-Dec-13 09:25N 31°37' E 121°25'2225.2
2014-Dec-13 08:33N 31°22' E 121°43'13653.2
2014-Dec-13 08:32N 31°22' E 121°28'1533.9
2014-Dec-13 08:05N 31°37' E 121°25'1529.6
2014-Dec-13 07:33N 31°21' E 121°28'132534.0
2014-Dec-13 07:33N 31°22' E 121°43'22304.1
2014-Dec-13 07:29N 31°37' E 121°25'1617.0
2014-Dec-13 06:32N 31°21' E 121°26'2033020.5
2014-Dec-13 06:28N 28°02' E 120°41'203219.0
2014-Dec-13 05:33N 31°21' E 121°26'0 0.0
2014-Dec-13 04:33N 31°21' E 121°26'15119.5
2014-Dec-13 04:26N 31°22' E 121°43'2274.2
2014-Dec-13 04:09N 31°37' E 121°25'1627.3
2014-Dec-13 03:33N 31°21' E 121°26'157494.4
2014-Dec-13 03:33N 31°22' E 121°43'0 0.0
2014-Dec-13 02:33N 31°22' E 121°43'76175.8
2014-Dec-13 02:08N 32°04' E 120°30'73127.6
2014-Dec-13 01:33N 31°22' E 121°39'111712.9
2014-Dec-13 01:33N 31°21' E 121°26'1614327.6
2014-Dec-13 01:33N 31°37' E 121°25'0 0.0
2014-Dec-13 00:33N 31°37' E 121°25'2311578.6
2014-Dec-13 00:33N 31°15' E 121°31'81844.4
2014-Dec-13 00:33N 31°23' E 121°30'41229.7
2014-Dec-13 00:33N 31°21' E 121°26'0 0.0
2014-Dec-12 23:33N 31°21' E 121°26'16148.9
2014-Dec-12 23:27N 31°37' E 121°25'216169.2
2014-Dec-12 23:26N 31°18' E 121°34'0 0.0
2014-Dec-12 22:33N 31°18' E 121°34'7609.2
2014-Dec-12 22:32N 31°21' E 121°26'16141.2
2014-Dec-12 22:25N 31°37' E 121°25'1618.4
2014-Dec-12 21:33N 31°21' E 121°26'169555.3
2014-Dec-12 21:33N 31°37' E 121°25'1514.9
2014-Dec-12 20:33N 31°22' E 121°29'15398.9
2014-Dec-12 20:31N 31°37' E 121°25'1313.7
2014-Dec-12 19:32N 31°24' E 121°31'1390.9
2014-Dec-12 19:24N 31°37' E 121°25'1315.9
2014-Dec-12 18:33N 31°24' E 121°31'13138.4
2014-Dec-12 18:28N 31°37' E 121°25'1314.3
2014-Dec-12 17:31N 31°24' E 121°31'0 0.1
2014-Dec-12 16:33N 31°24' E 121°31'2 1.9
2014-Dec-12 15:33N 31°26' E 121°29'6 6.4
2014-Dec-12 14:33N 31°30' E 121°23'6 5.9
2014-Dec-12 13:32N 31°34' E 121°18'6 6.3
2014-Dec-12 12:33N 31°39' E 121°14'1093.1
2014-Dec-12 12:27N 31°37' E 121°25'1516.4
2014-Dec-12 11:33N 31°42' E 121°08'32190.2
2014-Dec-12 11:23N 31°18' E 121°34'21104.7
2014-Dec-12 11:11N 31°37' E 121°25'1929.4
2014-Dec-12 10:33N 31°45' E 121°05'19359.9
2014-Dec-12 10:30N 31°37' E 121°25'2159.2
2014-Dec-12 10:09N 31°18' E 121°34'3863.5
2014-Dec-12 09:33N 31°45' E 121°03'201843.3
2014-Dec-12 09:33N 31°37' E 121°25'2020.0
2014-Dec-12 08:31N 31°45' E 121°03'38262.7
2014-Dec-12 08:23N 31°18' E 121°34'3947.4
2014-Dec-12 07:33N 31°46' E 121°02'307301.0
2014-Dec-12 06:32N 26°46' E 119°43'0 0.0
2014-Dec-12 05:32N 26°46' E 119°43'3137469.0
2014-Dec-12 05:30N 31°54' E 120°53'3234.0
2014-Dec-12 04:33N 31°37' E 121°25'383301.1
2014-Dec-12 04:33N 31°59' E 120°49'31929400.1
2014-Dec-12 04:32N 26°46' E 119°43'2889341.2
2014-Dec-12 04:30N 31°18' E 121°34'6264.9
2014-Dec-12 03:33N 31°60' E 120°41'4439180.6
2014-Dec-12 03:33N 31°37' E 121°25'30416325.2
2014-Dec-12 03:32N 26°46' E 119°43'318323.1
2014-Dec-12 02:33N 32°01' E 120°33'50252.4
2014-Dec-12 02:21N 31°37' E 121°25'30415625.5
2014-Dec-12 02:20N 26°46' E 119°43'2882391.2
2014-Dec-12 02:13N 31°17' E 121°34'73111.6
2014-Dec-12 01:33N 32°01' E 120°25'5612596.1
2014-Dec-12 01:33N 31°37' E 121°25'21119.5
2014-Dec-12 01:22N 31°17' E 121°34'13536.4
2014-Dec-12 01:21N 31°05' E 121°28'7898.4
2014-Dec-12 00:33N 31°58' E 120°20'593270.0
2014-Dec-12 00:32N 31°37' E 121°25'21127.4
2014-Dec-12 00:22N 31°17' E 121°34'7895.7
2014-Dec-11 23:33N 31°56' E 120°15'7823362.7
2014-Dec-11 23:33N 31°17' E 121°34'2176.8
2014-Dec-11 23:17N 31°37' E 121°25'6792.5
2014-Dec-11 22:33N 31°56' E 120°09'8259180.3
2014-Dec-11 22:33N 31°17' E 121°34'2162.0
2014-Dec-11 22:12N 31°37' E 121°25'73112.8
2014-Dec-11 21:34N 31°58' E 120°03'885174.3
2014-Dec-11 21:32N 31°17' E 121°34'0 0.0
2014-Dec-11 20:30N 31°17' E 121°34'21179.6
2014-Dec-11 20:23N 31°37' E 121°25'3042052.1
2014-Dec-11 20:14N 26°46' E 119°43'288421.6
2014-Dec-11 19:33N 31°17' E 121°34'2138350.6
2014-Dec-11 19:33N 31°37' E 121°25'30415191.2
2014-Dec-11 19:32N 26°46' E 119°43'288293.6
2014-Dec-11 18:33N 31°17' E 121°34'21166.4
2014-Dec-11 18:26N 31°37' E 121°25'2124.0
2014-Dec-11 17:32N 31°17' E 121°34'21136.6
2014-Dec-11 17:23N 31°37' E 121°25'0 0.0
2014-Dec-11 16:32N 31°37' E 121°25'21703.7
2014-Dec-11 16:30N 31°17' E 121°34'0 0.0
2014-Dec-11 15:31N 31°17' E 121°34'21421.5
2014-Dec-11 15:28N 31°37' E 121°25'0 0.0
2014-Dec-11 14:33N 31°37' E 121°25'21147.8
2014-Dec-11 14:24N 31°17' E 121°34'0 0.0
2014-Dec-11 13:25N 31°17' E 121°34'21217.9
2014-Dec-11 13:19N 31°37' E 121°25'2123.6
2014-Dec-11 12:25N 31°17' E 121°34'0 0.0
2014-Dec-11 11:25N 31°17' E 121°34'211198.8
2014-Dec-11 11:24N 31°37' E 121°25'0 0.0
2014-Dec-11 10:30N 31°37' E 121°25'0 0.0
2014-Dec-11 09:32N 31°37' E 121°25'21142.6
2014-Dec-11 09:23N 31°17' E 121°34'2125.6
2014-Dec-11 08:33N 31°37' E 121°25'21105.5
2014-Dec-11 08:21N 31°17' E 121°34'0 0.1
2014-Dec-11 07:33N 31°17' E 121°34'201017.6
2014-Dec-11 07:32N 31°36' E 121°25'2020.4
2014-Dec-11 06:32N 31°17' E 121°34'1 0.3
2014-Dec-11 04:32N 31°18' E 121°34'143779.8
2014-Dec-11 04:32N 31°05' E 121°28'1411.1
2014-Dec-11 03:18N 31°18' E 121°34'0 0.0
2014-Dec-11 02:31N 31°18' E 121°34'0 0.0
2014-Dec-11 01:33N 31°18' E 121°34'0 0.1
2014-Dec-11 00:10N 31°18' E 121°34'0 0.0
2014-Dec-10 23:28N 31°18' E 121°34'0 0.0
2014-Dec-10 22:12N 31°18' E 121°34'0 0.0
2014-Dec-10 21:18N 31°18' E 121°34'0 0.0
2014-Dec-10 20:33N 31°18' E 121°34'0 0.0
2014-Dec-10 17:27N 31°18' E 121°34'0 0.0
2014-Dec-10 16:29N 31°18' E 121°34'0 0.0
2014-Dec-10 15:04N 31°18' E 121°34'  

Dump ship's entire track history